Sussex, Virginia
Current Conditions -  °F | °C
As of 5:54 AM on Friday 24 Oct 2014 (Local Time) from KAKQ Reporting Station
Clear Clear  
Wind Chill: 46°   Ceiling: Unl
Heat Index: 48°   Visibility: 10mi
Dew Point: 42°   Wind: 5mph
Humidity: 80%   Direction: 250°WSW
Pressure: 29.98"   Gusts: NA
Location:  36.92°N, 77.28°W
Report Text: KAKQ 240954Z AUTO 25004KT 10SM CLR 09/06 A2998 RMK AO2 SLP153 T00890056 TSNO
Loading
Personal Weather Stations






























Interactive Weather Map
Tropical Storm Tracking
New forecast layout! Learn more

10-Day Weather Forecast

Advertisements
Track Severe Weather on mobile